Terminal Aerodrome Forecast
Issued by NWS

Home | Current Version | Previous Version | Text Only | Print | Product List | Glossary On
Versions: 1 2 3 4 5 6 7 8 9 10 11 12
997
FTUS43 KICT 110523
TAFCNU
TAF
KCNU 110523Z 1106/1206 22006KT P6SM SKC
     FM111500 29014G20KT P6SM SCT250
     FM111800 32019G27KT P6SM SCT150
     FM120100 33013KT P6SM SCT040=

USA.gov is the U.S. government's official web portal to all federal, state and local government web resources and services.